Aviation Digital Data Service (ADDS)

Output produced by METARs form (1236 UTC 26 February 2017)
found at http://aviationweather.gov/adds/metars/
 
KLBT 261120Z 2612/2712 33007KT P6SM SKC 
     FM270000 00000KT P6SM SKC